createdAt,value
2019-04-11T00:01:19.773Z,79.60
2019-04-11T00:03:49.364Z,79.50
2019-04-11T00:06:19.181Z,79.50
2019-04-11T00:08:48.171Z,79.00
2019-04-11T00:11:17.719Z,80.20
2019-04-11T00:13:47.272Z,79.60
2019-04-11T00:16:17.130Z,81.00
2019-04-11T00:18:47.051Z,81.30
2019-04-11T00:21:16.752Z,81.60
2019-04-11T00:23:46.071Z,81.00
2019-04-11T00:26:15.896Z,80.50
2019-04-11T00:28:43.728Z,79.90
2019-04-11T00:31:12.537Z,78.90
2019-04-11T00:33:41.034Z,79.50
2019-04-11T00:36:10.359Z,79.20
2019-04-11T00:38:38.951Z,79.60
2019-04-11T00:41:07.953Z,79.70
2019-04-11T00:43:41.696Z,79.70
2019-04-11T00:46:07.869Z,79.40
2019-04-11T00:48:37.617Z,78.40
2019-04-11T00:51:05.571Z,76.10
2019-04-11T00:53:34.192Z,75.20
2019-04-11T00:56:04.029Z,75.50
2019-04-11T00:58:33.852Z,75.20
2019-04-11T01:01:03.720Z,74.60
2019-04-11T01:03:31.754Z,74.80
2019-04-11T01:06:00.196Z,75.20
2019-04-11T01:08:29.418Z,74.80
2019-04-11T01:10:58.046Z,75.20
2019-04-11T01:13:26.540Z,74.60
2019-04-11T01:15:56.646Z,74.00
2019-04-11T01:18:25.719Z,74.00
2019-04-11T01:20:54.246Z,74.10
2019-04-11T01:23:22.803Z,74.50
2019-04-11T01:25:51.258Z,74.20
2019-04-11T01:28:20.670Z,73.90
2019-04-11T01:31:05.876Z,73.90
2019-04-11T01:33:34.445Z,74.50
2019-04-11T01:36:02.942Z,73.60
2019-04-11T01:38:33.129Z,73.40
2019-04-11T01:41:02.450Z,73.50
2019-04-11T01:43:32.374Z,73.00
2019-04-11T01:46:02.126Z,72.10
2019-04-11T01:48:35.352Z,72.10
2019-04-11T01:51:04.067Z,72.10
2019-04-11T01:53:33.152Z,71.80
2019-04-11T01:56:01.600Z,71.80
2019-04-11T01:58:30.942Z,72.20
2019-04-11T02:01:04.217Z,72.00
2019-04-11T02:03:35.057Z,72.00
2019-04-11T02:06:03.674Z,72.90
2019-04-11T02:08:33.358Z,73.00
2019-04-11T02:11:01.401Z,73.80
2019-04-11T02:13:30.075Z,74.90
2019-04-11T02:15:59.853Z,77.10
2019-04-11T02:18:29.709Z,78.20
2019-04-11T02:20:58.349Z,79.10
2019-04-11T02:23:41.386Z,79.00
2019-04-11T02:26:14.993Z,77.90
2019-04-11T02:28:44.549Z,78.80
2019-04-11T02:31:22.274Z,78.60
2019-04-11T02:33:51.221Z,78.90
2019-04-11T02:36:20.766Z,79.20
2019-04-11T02:38:54.164Z,80.40
2019-04-11T02:41:20.985Z,81.00
2019-04-11T02:43:50.998Z,80.10
2019-04-11T02:46:28.542Z,80.70
2019-04-11T02:48:49.920Z,80.90
2019-04-11T02:51:18.376Z,81.80
2019-04-11T02:53:47.247Z,82.30
2019-04-11T02:56:17.396Z,82.90
2019-04-11T02:58:46.841Z,83.60
2019-04-11T03:01:17.761Z,82.40
2019-04-11T03:03:47.431Z,82.80
2019-04-11T03:06:17.531Z,82.40
2019-04-11T03:09:07.182Z,82.00
2019-04-11T03:11:36.171Z,81.00
2019-04-11T03:14:04.985Z,82.00
2019-04-11T03:16:46.748Z,82.00
2019-04-11T03:19:18.403Z,82.40
2019-04-11T03:21:38.910Z,81.80
2019-04-11T03:24:06.129Z,82.10
2019-04-11T03:26:35.558Z,81.60
2019-04-11T03:29:06.188Z,83.00
2019-04-11T03:32:10.946Z,82.50
2019-04-11T03:37:13.793Z,81.50
2019-04-11T03:39:28.659Z,81.80
2019-04-11T03:41:52.051Z,81.40
2019-04-11T03:44:18.233Z,82.00
2019-04-11T03:46:52.466Z,81.70
2019-04-11T03:49:24.028Z,81.90
2019-04-11T03:51:40.452Z,81.60
2019-04-11T03:54:09.614Z,81.50
2019-04-11T03:56:38.983Z,81.40
2019-04-11T03:59:10.316Z,81.00
2019-04-11T04:01:38.084Z,81.40
2019-04-11T04:04:06.740Z,81.20
2019-04-11T04:06:37.202Z,81.10
2019-04-11T04:09:06.636Z,81.10
2019-04-11T04:11:35.211Z,81.40
2019-04-11T04:14:21.579Z,80.70
2019-04-11T04:16:57.375Z,81.10
2019-04-11T04:19:43.740Z,81.10
2019-04-11T04:22:31.526Z,80.70
2019-04-11T04:25:01.047Z,80.90
2019-04-11T04:27:30.524Z,81.40
2019-04-11T04:30:02.203Z,80.80
2019-04-11T04:32:30.415Z,80.60
2019-04-11T04:35:01.146Z,80.40
2019-04-11T04:37:31.909Z,80.10
2019-04-11T04:40:21.627Z,81.20
2019-04-11T04:42:36.619Z,81.40
2019-04-11T04:45:02.851Z,80.90
2019-04-11T04:47:39.518Z,80.30
2019-04-11T04:50:04.006Z,80.20
2019-04-11T04:52:33.901Z,79.30
2019-04-11T04:55:05.559Z,79.30
2019-04-11T04:57:53.349Z,78.90
2019-04-11T05:00:25.424Z,77.70
2019-04-11T05:02:54.953Z,73.00
2019-04-11T05:05:26.566Z,71.40
2019-04-11T05:07:56.278Z,71.70
2019-04-11T05:10:26.350Z,71.70
2019-04-11T05:12:54.979Z,71.20
2019-04-11T05:15:26.089Z,70.70
2019-04-11T05:17:53.844Z,70.50
2019-04-11T05:20:23.810Z,71.10
2019-04-11T05:22:51.802Z,72.10
2019-04-11T05:25:20.406Z,72.40
2019-04-11T05:27:49.680Z,73.90
2019-04-11T05:30:18.780Z,73.70
2019-04-11T05:32:47.423Z,73.00
2019-04-11T05:35:16.517Z,72.90
2019-04-11T05:37:45.170Z,72.80
2019-04-11T05:40:14.641Z,73.20
2019-04-11T05:42:42.668Z,72.70
2019-04-11T05:45:16.940Z,72.90
2019-04-11T05:47:41.427Z,72.70
2019-04-11T05:50:20.617Z,71.20
2019-04-11T05:52:50.342Z,70.40
2019-04-11T05:55:18.233Z,71.30
2019-04-11T05:57:47.121Z,71.20
2019-04-11T06:00:35.295Z,71.50
2019-04-11T06:03:05.875Z,70.90
2019-04-11T06:05:45.059Z,70.90
2019-04-11T06:08:21.110Z,70.50
2019-04-11T06:10:56.704Z,70.90
2019-04-11T06:13:26.793Z,69.40
2019-04-11T06:15:59.753Z,69.40
2019-04-11T06:18:48.156Z,69.00
2019-04-11T06:21:18.534Z,68.70
2019-04-11T06:23:49.763Z,68.10
2019-04-11T06:26:26.857Z,68.30
2019-04-11T06:28:57.128Z,66.80
2019-04-11T06:31:40.385Z,67.10
2019-04-11T06:34:09.284Z,66.90
2019-04-11T06:36:55.709Z,67.80
2019-04-11T06:39:27.391Z,68.00
2019-04-11T06:42:01.221Z,67.70
2019-04-11T06:44:32.075Z,66.20
2019-04-11T06:47:10.392Z,66.20
2019-04-11T06:49:40.656Z,66.00
2019-04-11T06:52:14.866Z,66.20
2019-04-11T06:57:34.338Z,67.60
2019-04-11T07:00:05.206Z,67.20
2019-04-11T07:02:35.466Z,66.90
2019-04-11T07:05:08.956Z,65.90
2019-04-11T07:07:38.990Z,66.10
2019-04-11T07:10:07.462Z,67.20
2019-04-11T07:12:43.341Z,66.70
2019-04-11T07:15:18.703Z,66.60
2019-04-11T07:18:07.442Z,67.10
2019-04-11T07:23:51.533Z,65.40
2019-04-11T07:26:25.218Z,66.50
2019-04-11T07:28:56.502Z,65.40
2019-04-11T07:31:46.244Z,64.60
2019-04-11T07:34:35.421Z,64.30
2019-04-11T07:37:06.843Z,65.00
2019-04-11T07:39:37.929Z,64.00
2019-04-11T07:42:26.026Z,65.20
2019-04-11T07:44:56.285Z,64.50
2019-04-11T07:47:38.514Z,64.30
2019-04-11T07:50:10.129Z,64.70
2019-04-11T07:52:56.083Z,63.80
2019-04-11T07:55:25.904Z,63.60
2019-04-11T07:57:59.532Z,64.80
2019-04-11T08:00:44.082Z,63.70
2019-04-11T08:03:26.021Z,64.50
2019-04-11T08:06:13.305Z,64.70
2019-04-11T08:08:49.694Z,64.80
2019-04-11T08:11:19.884Z,64.00
2019-04-11T08:13:54.736Z,63.40
2019-04-11T08:16:28.845Z,63.80
2019-04-11T08:19:15.599Z,64.10
2019-04-11T08:22:03.053Z,64.00
2019-04-11T08:24:34.341Z,64.70
2019-04-11T08:27:07.319Z,64.90
2019-04-11T08:29:36.497Z,64.60
2019-04-11T08:32:23.151Z,64.80
2019-04-11T08:34:56.179Z,63.90
2019-04-11T08:37:27.489Z,62.70
2019-04-11T08:39:57.717Z,61.20
2019-04-11T08:42:44.456Z,61.50
2019-04-11T08:45:14.626Z,60.80
2019-04-11T08:47:49.232Z,60.50
2019-04-11T08:50:16.561Z,60.20
2019-04-11T08:52:46.719Z,60.30
2019-04-11T08:55:17.248Z,59.40
2019-04-11T08:57:47.727Z,59.90
2019-04-11T09:00:34.643Z,59.80
2019-04-11T09:03:11.676Z,59.70
2019-04-11T09:05:47.859Z,60.40
2019-04-11T09:08:23.277Z,59.50
2019-04-11T09:11:01.619Z,59.00
2019-04-11T09:13:41.769Z,60.20
2019-04-11T09:16:28.426Z,59.60
2019-04-11T09:19:14.682Z,60.90
2019-04-11T09:22:00.904Z,61.60
2019-04-11T09:24:43.329Z,60.10
2019-04-11T09:27:30.955Z,60.90
2019-04-11T09:30:02.530Z,59.20
2019-04-11T09:32:42.420Z,58.90
2019-04-11T09:35:22.081Z,58.80
2019-04-11T09:37:51.699Z,58.60
2019-04-11T09:40:39.505Z,58.50
2019-04-11T09:43:09.797Z,58.40
2019-04-11T09:45:56.204Z,54.60
2019-04-11T09:48:42.232Z,51.00
2019-04-11T09:51:13.550Z,51.90
2019-04-11T09:53:45.016Z,52.40
2019-04-11T09:56:21.491Z,51.50
2019-04-11T09:58:51.873Z,51.20
2019-04-11T10:01:38.598Z,49.00
2019-04-11T10:04:08.830Z,48.60
2019-04-11T10:06:42.033Z,48.30
2019-04-11T10:09:11.505Z,47.70
2019-04-11T10:11:59.000Z,46.10
2019-04-11T10:14:27.756Z,46.70
2019-04-11T10:17:14.782Z,48.40
2019-04-11T10:19:44.332Z,49.00
2019-04-11T10:22:15.121Z,49.00
2019-04-11T10:25:01.013Z,48.30
2019-04-11T10:27:47.028Z,48.70
2019-04-11T10:30:33.587Z,49.60
2019-04-11T10:33:04.576Z,48.80
2019-04-11T10:35:50.880Z,48.30
2019-04-11T10:38:22.434Z,47.00
2019-04-11T10:40:58.755Z,47.40
2019-04-11T10:43:28.603Z,48.40
2019-04-11T10:46:01.159Z,50.10
2019-04-11T10:48:37.723Z,47.30
2019-04-11T10:51:15.048Z,46.50
2019-04-11T10:53:43.886Z,47.60
2019-04-11T10:56:16.637Z,48.90
2019-04-11T10:58:46.829Z,49.90
2019-04-11T11:01:33.812Z,50.60
2019-04-11T11:04:07.395Z,50.20
2019-04-11T11:06:36.057Z,49.70
2019-04-11T11:09:08.073Z,50.70
2019-04-11T11:11:40.955Z,48.80
2019-04-11T11:14:12.285Z,50.40
2019-04-11T11:16:45.889Z,52.70
2019-04-11T11:19:50.215Z,53.40
2019-04-11T11:22:18.787Z,52.90
2019-04-11T11:25:06.465Z,52.50
2019-04-11T11:27:36.570Z,53.40
2019-04-11T11:30:25.221Z,54.30
2019-04-11T11:32:53.954Z,53.70
2019-04-11T11:35:42.368Z,54.20
2019-04-11T11:38:13.472Z,54.20
2019-04-11T11:40:44.956Z,53.30
2019-04-11T11:43:15.024Z,53.30
2019-04-11T11:46:01.383Z,54.60
2019-04-11T11:48:35.570Z,54.20
2019-04-11T11:51:13.067Z,54.00
2019-04-11T11:53:46.925Z,54.00
2019-04-11T11:56:15.903Z,53.60
2019-04-11T11:58:53.018Z,53.60
2019-04-11T12:01:22.540Z,54.60
2019-04-11T12:04:00.134Z,54.00
2019-04-11T12:06:27.065Z,54.80
2019-04-11T12:09:00.389Z,54.80
2019-04-11T12:11:28.861Z,54.50
2019-04-11T12:14:04.976Z,53.80
2019-04-11T12:16:36.240Z,54.10
2019-04-11T12:19:06.755Z,54.10
2019-04-11T12:21:37.178Z,54.80
2019-04-11T12:24:11.357Z,55.00
2019-04-11T12:27:10.209Z,53.40
2019-04-11T12:29:47.864Z,53.30
2019-04-11T12:32:28.468Z,53.00
2019-04-11T12:34:59.771Z,53.60
2019-04-11T12:37:29.961Z,54.20
2019-04-11T12:40:10.610Z,54.70
2019-04-11T12:42:40.623Z,53.90
2019-04-11T12:45:28.779Z,52.70
2019-04-11T12:47:57.349Z,54.00
2019-04-11T12:50:36.492Z,55.30
2019-04-11T12:53:06.599Z,53.50
2019-04-11T12:55:36.673Z,52.20
2019-04-11T12:58:09.913Z,53.00
2019-04-11T13:00:46.162Z,54.70
2019-04-11T13:03:25.500Z,55.30
2019-04-11T13:05:55.654Z,54.00
2019-04-11T13:08:42.393Z,53.90
2019-04-11T13:11:13.043Z,56.00
2019-04-11T13:13:43.065Z,56.60
2019-04-11T13:16:13.269Z,55.70
2019-04-11T13:18:59.528Z,54.70
2019-04-11T13:21:29.585Z,56.30
2019-04-11T13:24:05.677Z,55.90
2019-04-11T13:26:35.731Z,55.10
2019-04-11T13:29:15.882Z,55.40
2019-04-11T13:31:57.170Z,56.30
2019-04-11T13:34:33.329Z,56.20
2019-04-11T13:37:19.795Z,55.80
2019-04-11T13:40:06.518Z,56.00
2019-04-11T13:42:52.911Z,57.20
2019-04-11T13:45:21.519Z,56.80
2019-04-11T13:48:09.312Z,57.40
2019-04-11T13:50:38.040Z,58.10
2019-04-11T13:53:24.247Z,57.70
2019-04-11T13:55:54.459Z,59.10
2019-04-11T13:58:31.141Z,57.60
2019-04-11T14:00:59.784Z,57.30
2019-04-11T14:03:46.275Z,57.70
2019-04-11T14:06:16.619Z,56.70
2019-04-11T14:08:52.312Z,56.80
2019-04-11T14:11:26.100Z,56.20
2019-04-11T14:13:55.010Z,56.00
2019-04-11T14:16:24.687Z,55.90
2019-04-11T14:18:54.899Z,56.80
2019-04-11T14:21:25.136Z,57.00
2019-04-11T14:24:16.163Z,56.40
2019-04-11T14:26:52.210Z,56.60
2019-04-11T14:29:59.519Z,56.00
2019-04-11T14:32:29.675Z,56.50
2019-04-11T14:35:08.826Z,56.40
2019-04-11T14:37:39.026Z,55.90
2019-04-11T14:40:26.242Z,56.60
2019-04-11T14:42:59.066Z,56.90
2019-04-11T14:45:29.210Z,56.50
2019-04-11T14:48:14.392Z,56.60
2019-04-11T14:50:47.689Z,55.90
2019-04-11T14:53:17.879Z,56.50
2019-04-11T14:55:48.992Z,56.10
2019-04-11T14:58:28.307Z,57.00
2019-04-11T15:00:56.892Z,57.40
2019-04-11T15:03:34.757Z,57.60
2019-04-11T15:06:07.438Z,56.40
2019-04-11T15:08:38.683Z,58.00
2019-04-11T15:11:18.672Z,58.10
2019-04-11T15:13:50.336Z,57.80
2019-04-11T15:16:20.496Z,58.40
2019-04-11T15:18:50.564Z,57.50
2019-04-11T15:21:20.641Z,57.50
2019-04-11T15:23:49.213Z,57.30
2019-04-11T15:29:13.549Z,57.30
2019-04-11T15:31:42.161Z,57.20
2019-04-11T15:34:24.042Z,57.70
2019-04-11T15:37:10.704Z,57.90
2019-04-11T15:39:49.974Z,58.10
2019-04-11T15:42:20.165Z,57.80
2019-04-11T15:44:55.753Z,57.40
2019-04-11T15:47:28.626Z,57.10
2019-04-11T15:50:07.788Z,57.10
2019-04-11T15:52:37.938Z,57.70
2019-04-11T15:55:08.456Z,57.40
2019-04-11T15:57:42.640Z,57.20
2019-04-11T16:00:27.879Z,57.80
2019-04-11T16:03:10.662Z,58.00
2019-04-11T16:05:57.238Z,58.10
2019-04-11T16:08:27.491Z,58.10
2019-04-11T16:11:12.138Z,58.80
2019-04-11T16:13:59.473Z,58.80
2019-04-11T16:16:32.628Z,58.50
2019-04-11T16:19:19.149Z,58.20
2019-04-11T16:22:04.012Z,58.40
2019-04-11T16:24:37.394Z,58.50
2019-04-11T16:27:16.551Z,59.10
2019-04-11T16:29:49.488Z,60.20
2019-04-11T16:32:19.656Z,59.50
2019-04-11T16:34:54.350Z,59.50
2019-04-11T16:37:20.134Z,59.90
2019-04-11T16:40:06.729Z,59.90
2019-04-11T16:42:36.795Z,59.70
2019-04-11T16:45:17.903Z,60.00
2019-04-11T16:47:57.010Z,59.80
2019-04-11T16:50:25.487Z,59.30
2019-04-11T16:52:53.996Z,59.30
2019-04-11T16:55:22.577Z,58.90
2019-04-11T16:57:51.167Z,59.00
2019-04-11T17:00:20.630Z,59.30
2019-04-11T17:02:49.859Z,59.30
2019-04-11T17:05:18.459Z,58.90
2019-04-11T17:07:51.352Z,59.30
2019-04-11T17:10:21.466Z,59.50
2019-04-11T17:12:49.976Z,59.70
2019-04-11T17:15:19.962Z,59.80
2019-04-11T17:17:48.479Z,60.00
2019-04-11T17:20:18.533Z,59.70
2019-04-11T17:22:48.888Z,59.70
2019-04-11T17:25:19.843Z,60.20
2019-04-11T17:27:50.685Z,60.30
2019-04-11T17:30:20.163Z,59.70
2019-04-11T17:32:48.650Z,60.20
2019-04-11T17:35:17.152Z,60.50
2019-04-11T17:37:45.713Z,60.80
2019-04-11T17:40:14.291Z,60.60
2019-04-11T17:42:44.023Z,60.70
2019-04-11T17:45:13.122Z,60.80
2019-04-11T17:47:41.648Z,61.20
2019-04-11T17:50:10.180Z,61.80
2019-04-11T17:52:38.866Z,62.30
2019-04-11T17:55:07.476Z,62.10
2019-04-11T17:57:36.111Z,62.20
2019-04-11T18:00:10.533Z,61.70
2019-04-11T18:02:41.497Z,61.90
2019-04-11T18:05:09.412Z,62.00
2019-04-11T18:07:38.066Z,61.90
2019-04-11T18:10:07.471Z,61.40
2019-04-11T18:12:36.034Z,61.40
2019-04-11T18:15:07.513Z,61.20
2019-04-11T18:17:36.437Z,61.20
2019-04-11T18:20:08.133Z,61.30
2019-04-11T18:22:36.622Z,61.40
2019-04-11T18:25:06.137Z,61.50
2019-04-11T18:27:34.946Z,61.40
2019-04-11T18:30:03.569Z,61.60
2019-04-11T18:32:32.074Z,61.30
2019-04-11T18:35:02.416Z,60.30
2019-04-11T18:37:32.175Z,60.10
2019-04-11T18:40:00.882Z,59.50
2019-04-11T18:42:29.406Z,59.30
2019-04-11T18:44:57.997Z,59.00
2019-04-11T18:47:26.692Z,59.50
2019-04-11T18:49:55.412Z,59.40
2019-04-11T18:52:25.304Z,59.40
2019-04-11T18:54:54.612Z,59.20
2019-04-11T18:57:23.070Z,59.70
2019-04-11T18:59:51.589Z,59.70
2019-04-11T19:02:40.226Z,59.70
2019-04-11T19:05:10.831Z,59.50
2019-04-11T19:07:42.983Z,60.70
2019-04-11T19:10:14.552Z,60.60
2019-04-11T19:12:44.018Z,60.90
2019-04-11T19:15:13.804Z,61.50
2019-04-11T19:17:46.214Z,61.60
2019-04-11T19:20:18.909Z,63.00
2019-04-11T19:22:47.183Z,63.10
2019-04-11T19:25:15.986Z,63.10
2019-04-11T19:27:45.004Z,63.30
2019-04-11T19:30:14.615Z,63.30
2019-04-11T19:32:43.847Z,63.60
2019-04-11T19:35:14.754Z,63.60
2019-04-11T19:37:43.317Z,63.80
2019-04-11T19:40:16.152Z,63.90
2019-04-11T19:42:42.069Z,63.90
2019-04-11T19:45:10.631Z,63.10
2019-04-11T19:47:39.159Z,62.80
2019-04-11T19:50:07.817Z,63.10
2019-04-11T19:52:45.214Z,63.20
2019-04-11T19:55:13.790Z,63.30
2019-04-11T19:57:42.294Z,63.90
2019-04-11T20:00:12.537Z,64.50
2019-04-11T20:02:41.139Z,65.00
2019-04-11T20:05:12.062Z,65.60
2019-04-11T20:07:39.840Z,66.20
2019-04-11T20:10:08.419Z,67.10
2019-04-11T20:12:37.035Z,67.30
2019-04-11T20:15:08.724Z,67.70
2019-04-11T20:17:44.227Z,68.10
2019-04-11T20:20:07.871Z,68.60
2019-04-11T20:22:39.192Z,69.00
2019-04-11T20:25:07.140Z,69.40
2019-04-11T20:27:35.803Z,70.70
2019-04-11T20:30:05.831Z,70.20
2019-04-11T20:32:34.478Z,70.80
2019-04-11T20:35:02.957Z,71.10
2019-04-11T20:37:39.092Z,71.10
2019-04-11T20:40:01.743Z,71.10
2019-04-11T20:42:30.247Z,71.00
2019-04-11T20:44:59.195Z,71.10
2019-04-11T20:47:29.485Z,71.20
2019-04-11T20:49:58.032Z,71.30
2019-04-11T20:52:26.480Z,71.20
2019-04-11T20:54:55.132Z,71.30
2019-04-11T20:57:26.013Z,71.40
2019-04-11T20:59:54.295Z,71.50
2019-04-11T21:02:22.965Z,71.60
2019-04-11T21:04:51.740Z,71.40
2019-04-11T21:07:20.212Z,71.40
2019-04-11T21:09:48.726Z,70.50
2019-04-11T21:12:19.048Z,69.50
2019-04-11T21:14:48.348Z,68.80
2019-04-11T21:17:16.933Z,68.80
2019-04-11T21:19:45.450Z,67.20
2019-04-11T21:22:15.505Z,66.90
2019-04-11T21:24:44.054Z,66.10
2019-04-11T21:27:12.541Z,65.20
2019-04-11T21:29:41.638Z,64.90
2019-04-11T21:32:10.249Z,64.00
2019-04-11T21:34:38.804Z,63.80
2019-04-11T21:37:07.307Z,64.00
2019-04-11T21:39:35.814Z,62.80
2019-04-11T21:42:06.131Z,61.70
2019-04-11T21:44:36.752Z,61.80
2019-04-11T21:47:07.297Z,60.90
2019-04-11T21:49:36.953Z,60.70
2019-04-11T21:52:05.002Z,60.70
2019-04-11T21:54:33.572Z,60.80
2019-04-11T21:57:02.113Z,60.00
2019-04-11T21:59:30.713Z,60.60
2019-04-11T22:01:59.310Z,61.40
2019-04-11T22:04:30.929Z,60.00
2019-04-11T22:07:00.663Z,60.20
2019-04-11T22:09:28.269Z,60.20
2019-04-11T22:11:56.780Z,60.00
2019-04-11T22:14:25.199Z,60.10
2019-04-11T22:16:55.002Z,59.80
2019-04-11T22:19:23.834Z,59.90
2019-04-11T22:21:52.352Z,59.30
2019-04-11T22:24:20.852Z,58.80
2019-04-11T22:26:50.621Z,58.40
2019-04-11T22:29:19.432Z,58.20
2019-04-11T22:31:47.918Z,58.40
2019-04-11T22:34:28.788Z,58.20
2019-04-11T22:36:59.569Z,57.90
2019-04-11T22:39:29.015Z,57.50
2019-04-11T22:41:58.793Z,57.90
2019-04-11T22:44:27.378Z,57.80
2019-04-11T22:46:55.873Z,57.00
2019-04-11T22:49:24.438Z,56.80
2019-04-11T22:51:53.038Z,56.90
2019-04-11T22:54:21.646Z,56.70
2019-04-11T22:56:50.312Z,56.60
2019-04-11T22:59:18.806Z,56.80
2019-04-11T23:01:47.806Z,57.00
2019-04-11T23:04:17.023Z,56.80
2019-04-11T23:06:47.283Z,56.80
2019-04-11T23:09:16.704Z,57.10
2019-04-11T23:11:46.695Z,57.50
2019-04-11T23:14:15.916Z,57.50
2019-04-11T23:16:44.776Z,58.40
2019-04-11T23:19:14.313Z,57.50
2019-04-11T23:21:43.015Z,57.70
2019-04-11T23:24:12.330Z,58.00
2019-04-11T23:26:41.101Z,59.00
2019-04-11T23:29:09.569Z,58.50
2019-04-11T23:31:38.148Z,58.20
2019-04-11T23:34:06.590Z,58.40
2019-04-11T23:36:36.064Z,58.70
2019-04-11T23:39:06.667Z,59.40
2019-04-11T23:41:36.434Z,59.10
2019-04-11T23:44:04.246Z,59.80
2019-04-11T23:46:32.823Z,60.10
2019-04-11T23:49:01.325Z,59.90
2019-04-11T23:51:29.828Z,60.20
2019-04-11T23:53:59.693Z,60.50
2019-04-11T23:56:30.686Z,61.20
2019-04-11T23:59:01.655Z,60.90
